sensor_id;sensor_type;location;lat;lon;timestamp;pressure;altitude;pressure_sealevel;temperature;humidity
22862;BME280;11598;50.652;6.172;2023-01-31T00:03:08;97303.56;;;0.17;100.00
22862;BME280;11598;50.652;6.172;2023-01-31T00:13:08;97300.47;;;-0.01;100.00
22862;BME280;11598;50.652;6.172;2023-01-31T00:23:09;97301.25;;;0.03;100.00
22862;BME280;11598;50.652;6.172;2023-01-31T00:33:09;97299.44;;;0.10;100.00
22862;BME280;11598;50.652;6.172;2023-01-31T00:43:09;97299.31;;;0.16;100.00
22862;BME280;11598;50.652;6.172;2023-01-31T00:53:10;97290.88;;;0.11;100.00
22862;BME280;11598;50.652;6.172;2023-01-31T01:03:10;97313.16;;;0.04;100.00
22862;BME280;11598;50.652;6.172;2023-01-31T01:13:10;97303.19;;;-0.10;100.00
22862;BME280;11598;50.652;6.172;2023-01-31T01:23:11;97303.50;;;-0.27;100.00
22862;BME280;11598;50.652;6.172;2023-01-31T01:33:11;97297.81;;;-0.41;100.00
22862;BME280;11598;50.652;6.172;2023-01-31T01:43:12;97296.88;;;-0.37;100.00
22862;BME280;11598;50.652;6.172;2023-01-31T01:53:19;97305.38;;;-0.35;100.00
22862;BME280;11598;50.652;6.172;2023-01-31T02:25:44;97274.91;;;-0.01;100.00
22862;BME280;11598;50.652;6.172;2023-01-31T02:35:57;97273.91;;;0.08;100.00
22862;BME280;11598;50.652;6.172;2023-01-31T02:46:13;97268.59;;;0.19;100.00
22862;BME280;11598;50.652;6.172;2023-01-31T03:07:16;97255.75;;;0.22;100.00
22862;BME280;11598;50.652;6.172;2023-01-31T03:27:33;97261.81;;;0.16;100.00
22862;BME280;11598;50.652;6.172;2023-01-31T03:37:43;97268.81;;;0.07;100.00
22862;BME280;11598;50.652;6.172;2023-01-31T03:47:49;97248.44;;;0.05;100.00
22862;BME280;11598;50.652;6.172;2023-01-31T03:57:53;97240.59;;;0.14;100.00
22862;BME280;11598;50.652;6.172;2023-01-31T04:07:56;97249.91;;;0.15;100.00
22862;BME280;11598;50.652;6.172;2023-01-31T04:17:56;97245.81;;;0.07;100.00
22862;BME280;11598;50.652;6.172;2023-01-31T04:27:57;97241.66;;;0.03;100.00
22862;BME280;11598;50.652;6.172;2023-01-31T04:37:57;97236.75;;;-0.08;100.00
22862;BME280;11598;50.652;6.172;2023-01-31T04:47:57;97225.88;;;-0.16;100.00
22862;BME280;11598;50.652;6.172;2023-01-31T04:57:58;97211.50;;;-0.22;100.00
22862;BME280;11598;50.652;6.172;2023-01-31T05:07:58;97226.06;;;-0.27;100.00
22862;BME280;11598;50.652;6.172;2023-01-31T05:17:58;97218.50;;;-0.32;100.00
22862;BME280;11598;50.652;6.172;2023-01-31T05:28:03;97212.56;;;-0.34;100.00
22862;BME280;11598;50.652;6.172;2023-01-31T05:38:04;97209.94;;;-0.31;100.00
22862;BME280;11598;50.652;6.172;2023-01-31T05:48:04;97200.53;;;-0.29;100.00
22862;BME280;11598;50.652;6.172;2023-01-31T05:58:05;97200.63;;;-0.33;100.00
22862;BME280;11598;50.652;6.172;2023-01-31T06:08:05;97195.31;;;-0.21;100.00
22862;BME280;11598;50.652;6.172;2023-01-31T06:18:06;97158.41;;;-0.08;100.00
22862;BME280;11598;50.652;6.172;2023-01-31T06:28:06;97166.09;;;-0.08;100.00
22862;BME280;11598;50.652;6.172;2023-01-31T06:38:07;97171.25;;;-0.09;100.00
22862;BME280;11598;50.652;6.172;2023-01-31T06:48:07;97166.16;;;-0.11;100.00
22862;BME280;11598;50.652;6.172;2023-01-31T06:58:08;97164.41;;;-0.09;100.00
22862;BME280;11598;50.652;6.172;2023-01-31T07:08:08;97165.25;;;-0.10;100.00
22862;BME280;11598;50.652;6.172;2023-01-31T07:18:08;97178.91;;;-0.09;100.00
22862;BME280;11598;50.652;6.172;2023-01-31T07:28:10;97186.31;;;0.03;100.00
22862;BME280;11598;50.652;6.172;2023-01-31T07:38:11;97206.47;;;0.15;100.00
22862;BME280;11598;50.652;6.172;2023-01-31T07:48:11;97182.09;;;0.39;100.00
22862;BME280;11598;50.652;6.172;2023-01-31T07:58:13;97170.69;;;0.54;100.00
22862;BME280;11598;50.652;6.172;2023-01-31T08:08:14;97188.34;;;0.65;100.00
22862;BME280;11598;50.652;6.172;2023-01-31T08:18:14;97183.03;;;0.73;100.00
22862;BME280;11598;50.652;6.172;2023-01-31T08:28:14;97172.66;;;0.79;100.00
22862;BME280;11598;50.652;6.172;2023-01-31T08:38:15;97178.25;;;0.95;100.00
22862;BME280;11598;50.652;6.172;2023-01-31T08:48:15;97161.97;;;0.99;100.00
22862;BME280;11598;50.652;6.172;2023-01-31T08:58:16;97169.56;;;1.02;100.00
22862;BME280;11598;50.652;6.172;2023-01-31T09:08:16;97168.72;;;1.01;100.00
22862;BME280;11598;50.652;6.172;2023-01-31T09:18:16;97165.13;;;1.09;100.00
22862;BME280;11598;50.652;6.172;2023-01-31T09:28:17;97159.66;;;1.22;100.00
22862;BME280;11598;50.652;6.172;2023-01-31T09:38:17;97129.41;;;1.37;100.00
22862;BME280;11598;50.652;6.172;2023-01-31T09:48:21;97134.16;;;1.51;100.00
22862;BME280;11598;50.652;6.172;2023-01-31T10:19:09;97119.25;;;2.23;100.00
22862;BME280;11598;50.652;6.172;2023-01-31T10:39:22;97104.81;;;2.47;100.00
22862;BME280;11598;50.652;6.172;2023-01-31T10:49:25;97087.16;;;2.64;100.00
22862;BME280;11598;50.652;6.172;2023-01-31T10:59:35;97060.81;;;2.84;100.00
22862;BME280;11598;50.652;6.172;2023-01-31T11:09:39;97033.97;;;2.94;100.00
22862;BME280;11598;50.652;6.172;2023-01-31T11:19:48;97023.13;;;2.86;100.00
22862;BME280;11598;50.652;6.172;2023-01-31T11:29:49;97018.06;;;2.85;100.00
22862;BME280;11598;50.652;6.172;2023-01-31T11:40:18;97002.47;;;2.66;100.00
22862;BME280;11598;50.652;6.172;2023-01-31T12:10:58;96985.44;;;2.63;100.00
22862;BME280;11598;50.652;6.172;2023-01-31T12:31:23;96961.31;;;2.69;100.00
22862;BME280;11598;50.652;6.172;2023-01-31T12:41:43;96953.94;;;2.60;100.00
22862;BME280;11598;50.652;6.172;2023-01-31T13:01:48;96946.84;;;2.66;100.00
22862;BME280;11598;50.652;6.172;2023-01-31T13:12:14;96962.44;;;2.60;100.00
22862;BME280;11598;50.652;6.172;2023-01-31T13:22:21;96967.59;;;2.60;100.00
22862;BME280;11598;50.652;6.172;2023-01-31T13:32:29;96940.34;;;2.56;100.00
22862;BME280;11598;50.652;6.172;2023-01-31T13:42:32;96944.78;;;2.52;100.00
22862;BME280;11598;50.652;6.172;2023-01-31T13:52:45;96946.59;;;2.49;100.00
22862;BME280;11598;50.652;6.172;2023-01-31T14:03:10;96939.91;;;2.45;100.00
22862;BME280;11598;50.652;6.172;2023-01-31T14:13:37;96935.81;;;2.39;100.00
22862;BME280;11598;50.652;6.172;2023-01-31T14:23:45;96942.88;;;2.32;100.00
22862;BME280;11598;50.652;6.172;2023-01-31T14:33:49;96945.56;;;2.29;100.00
22862;BME280;11598;50.652;6.172;2023-01-31T15:04:19;96934.78;;;2.20;100.00
22862;BME280;11598;50.652;6.172;2023-01-31T15:24:42;96941.38;;;2.27;100.00
22862;BME280;11598;50.652;6.172;2023-01-31T15:35:05;96951.47;;;2.31;100.00
22862;BME280;11598;50.652;6.172;2023-01-31T15:55:15;96984.69;;;2.35;100.00
22862;BME280;11598;50.652;6.172;2023-01-31T16:05:20;96988.78;;;2.40;100.00
22862;BME280;11598;50.652;6.172;2023-01-31T16:15:23;96984.34;;;2.45;100.00
22862;BME280;11598;50.652;6.172;2023-01-31T16:25:24;96999.56;;;2.50;100.00
22862;BME280;11598;50.652;6.172;2023-01-31T16:35:27;97002.03;;;2.53;100.00
22862;BME280;11598;50.652;6.172;2023-01-31T16:45:32;97006.22;;;2.56;100.00
22862;BME280;11598;50.652;6.172;2023-01-31T16:55:33;97010.31;;;2.61;100.00
22862;BME280;11598;50.652;6.172;2023-01-31T17:05:40;97027.25;;;2.65;100.00
22862;BME280;11598;50.652;6.172;2023-01-31T17:15:41;97029.63;;;2.71;100.00
22862;BME280;11598;50.652;6.172;2023-01-31T17:25:42;97024.50;;;2.71;100.00
22862;BME280;11598;50.652;6.172;2023-01-31T17:35:44;97034.59;;;2.76;100.00
22862;BME280;11598;50.652;6.172;2023-01-31T17:45:48;97046.38;;;2.82;100.00
22862;BME280;11598;50.652;6.172;2023-01-31T17:55:49;97036.69;;;2.90;100.00
22862;BME280;11598;50.652;6.172;2023-01-31T18:05:49;97008.19;;;2.97;100.00
22862;BME280;11598;50.652;6.172;2023-01-31T18:16:01;96997.75;;;3.02;100.00
22862;BME280;11598;50.652;6.172;2023-01-31T18:26:06;96986.44;;;3.08;100.00
22862;BME280;11598;50.652;6.172;2023-01-31T18:36:10;96987.16;;;3.11;100.00
22862;BME280;11598;50.652;6.172;2023-01-31T18:46:13;96997.16;;;3.19;100.00
22862;BME280;11598;50.652;6.172;2023-01-31T18:56:17;96987.63;;;3.23;100.00
22862;BME280;11598;50.652;6.172;2023-01-31T19:06:22;96972.88;;;3.28;100.00
22862;BME280;11598;50.652;6.172;2023-01-31T19:16:25;96993.31;;;3.31;100.00
22862;BME280;11598;50.652;6.172;2023-01-31T19:26:27;97005.09;;;3.36;100.00
22862;BME280;11598;50.652;6.172;2023-01-31T19:36:39;97003.13;;;3.43;100.00
22862;BME280;11598;50.652;6.172;2023-01-31T19:46:40;96995.31;;;3.46;100.00
22862;BME280;11598;50.652;6.172;2023-01-31T19:56:42;97016.56;;;3.50;100.00
22862;BME280;11598;50.652;6.172;2023-01-31T20:06:43;97031.97;;;3.50;100.00
22862;BME280;11598;50.652;6.172;2023-01-31T20:16:44;97040.59;;;3.49;100.00
22862;BME280;11598;50.652;6.172;2023-01-31T20:26:45;97031.28;;;3.46;100.00
22862;BME280;11598;50.652;6.172;2023-01-31T20:36:45;97034.56;;;3.50;100.00
22862;BME280;11598;50.652;6.172;2023-01-31T20:46:45;97009.66;;;3.52;100.00
22862;BME280;11598;50.652;6.172;2023-01-31T20:56:46;97010.44;;;3.54;100.00
22862;BME280;11598;50.652;6.172;2023-01-31T21:06:47;97004.34;;;3.56;100.00
22862;BME280;11598;50.652;6.172;2023-01-31T21:16:47;97012.88;;;3.57;100.00
22862;BME280;11598;50.652;6.172;2023-01-31T21:26:48;97000.94;;;3.56;100.00
22862;BME280;11598;50.652;6.172;2023-01-31T21:36:48;97003.47;;;3.57;100.00
22862;BME280;11598;50.652;6.172;2023-01-31T21:46:48;96982.78;;;3.60;100.00
22862;BME280;11598;50.652;6.172;2023-01-31T21:56:49;96973.28;;;3.63;100.00
22862;BME280;11598;50.652;6.172;2023-01-31T22:06:50;96967.28;;;3.62;100.00
22862;BME280;11598;50.652;6.172;2023-01-31T22:26:54;96950.25;;;3.59;100.00
22862;BME280;11598;50.652;6.172;2023-01-31T22:36:54;96940.88;;;3.58;100.00
22862;BME280;11598;50.652;6.172;2023-01-31T22:46:55;96922.25;;;3.53;100.00
22862;BME280;11598;50.652;6.172;2023-01-31T22:56:55;96928.44;;;3.48;100.00
22862;BME280;11598;50.652;6.172;2023-01-31T23:06:55;96910.72;;;3.42;100.00
22862;BME280;11598;50.652;6.172;2023-01-31T23:16:56;96921.81;;;3.20;100.00
22862;BME280;11598;50.652;6.172;2023-01-31T23:27:14;96925.16;;;2.99;100.00
22862;BME280;11598;50.652;6.172;2023-01-31T23:37:15;96928.66;;;2.72;100.00
22862;BME280;11598;50.652;6.172;2023-01-31T23:47:16;96929.63;;;2.70;100.00
22862;BME280;11598;50.652;6.172;2023-01-31T23:57:16;96925.00;;;2.80;100.00
